High Point, New Jersey
Current Conditions -  °F | °C
As of 10:53 AM on Saturday 22 Nov 2014 (Local Time) from KFWN Reporting Station
Clear Clear  
Wind Chill: -5°   Ceiling: Unl
Heat Index:   Visibility: 10mi
Dew Point: -11°   Wind: 14mph
Humidity: 43%   Direction: 220°SW
Pressure: 30.37"   Gusts: 21mph
Location:  41.2395°N, 74.6087°W
Report Text: KFWN 221553Z AUTO 22012G18KT 10SM CLR 01/M11 A3037 RMK AO2 SLP288 T00061106
Loading
Personal Weather Stations






























Interactive Weather Map New forecast layout! Learn more

10-Day Weather Forecast

Advertisements
Track Severe Weather on mobile